Terminal Aerodrome Forecast
Issued by NWS

Home | Current Version | Previous Version | Text Only | Print | Product List | Glossary On
Versions: 1 2 3 4 5 6 7 8 9 10 11 12 13 14 15 16 17 18 19
000
FTUS41 KBTV 060530
TAFRUT
TAF
KRUT 060530Z 0606/0706 VRB04KT P6SM SCT020
      TEMPO 0606/0610 BKN020
     FM061000 VRB03KT P6SM BKN020
     FM061600 VRB03KT P6SM SCT020
     FM070200 13005KT P6SM SCT200=

USA.gov is the U.S. government's official web portal to all federal, state and local government web resources and services.